Time;durP1;ratioP1;P1;durP2;ratioP2;P2;SDS_P1;SDS_P2;PMS_P1;PMS_P2;Temp;Humidity;BMP_temperature;BMP_pressure;BME280_temperature;BME280_humidity;BME280_pressure;Samples;Min_cycle;Max_cycle;Signal;HPM_P1;HPM_P2
2022/04/30 00:01:12;;;;;;;26.63;2.58;;;;;;;21.31;48.93;100170.91;7312917;19;129480;-38
2022/04/30 00:03:38;;;;;;;25.70;2.90;;;;;;;21.32;49.63;100160.31;7308795;19;128819;-38
2022/04/30 00:06:04;;;;;;;28.30;2.73;;;;;;;21.36;49.98;100168.72;7309146;19;128796;-39
2022/04/30 00:08:30;;;;;;;36.83;3.65;;;;;;;21.36;50.21;100169.56;7311928;19;129517;-39
2022/04/30 00:10:56;;;;;;;20.45;2.33;;;;;;;21.36;49.34;100168.72;7310458;19;129301;-41
2022/04/30 00:13:21;;;;;;;20.48;2.25;;;;;;;21.36;49.64;100169.56;7309855;19;129394;-39
2022/04/30 00:15:46;;;;;;;20.20;2.35;;;;;;;21.40;50.21;100170.97;7310290;19;129289;-38
2022/04/30 00:18:11;;;;;;;22.45;2.33;;;;;;;21.38;49.57;100162.44;7310281;19;154524;-40
2022/04/30 00:20:38;;;;;;;17.02;1.77;;;;;;;21.29;48.80;100162.34;7309835;19;158568;-37
2022/04/30 00:23:05;;;;;;;14.00;1.60;;;;;;;20.92;47.10;100164.44;7309503;19;129114;-37
2022/04/30 00:25:30;;;;;;;31.38;3.72;;;;;;;20.86;47.16;100164.91;7310604;19;128937;-38
2022/04/30 00:27:55;;;;;;;31.33;3.20;;;;;;;20.85;47.43;100163.25;7311538;19;129590;-38
2022/04/30 00:30:21;;;;;;;29.05;3.05;;;;;;;20.89;46.49;100163.84;7309026;19;159078;-40
2022/04/30 00:32:48;;;;;;;75.78;8.27;;;;;;;20.89;46.76;100159.44;7303891;19;128885;-40
2022/04/30 00:35:14;;;;;;;15.25;1.67;;;;;;;20.87;46.57;100156.13;7308442;19;129388;-40
2022/04/30 00:37:39;;;;;;;16.17;1.80;;;;;;;20.86;46.49;100157.06;7310144;19;130095;-38
2022/04/30 00:40:06;;;;;;;37.30;3.50;;;;;;;20.86;46.49;100153.63;7306590;19;158462;-41
2022/04/30 00:42:31;;;;;;;14.85;1.80;;;;;;;20.92;46.39;100153.97;7309550;19;128984;-38
2022/04/30 00:44:57;;;;;;;27.42;2.80;;;;;;;20.96;45.68;100152.78;7310882;19;129242;-37
2022/04/30 00:47:22;;;;;;;19.05;2.20;;;;;;;20.93;46.23;100153.03;7308357;19;158992;-37
2022/04/30 00:49:48;;;;;;;29.40;2.97;;;;;;;21.02;46.58;100144.50;7309728;19;130563;-37
2022/04/30 00:52:16;;;;;;;29.10;2.85;;;;;;;21.20;47.59;100143.00;7309534;19;129504;-41
2022/04/30 00:54:48;;;;;;;18.02;1.92;;;;;;;21.22;48.88;100135.84;7311241;19;129021;-39
2022/04/30 00:57:16;;;;;;;19.08;2.05;;;;;;;21.24;48.64;100138.34;7308049;19;130073;-40
2022/04/30 00:59:43;;;;;;;25.70;2.75;;;;;;;21.21;49.61;100120.28;7308714;19;129649;-40
2022/04/30 01:02:10;;;;;;;20.17;2.15;;;;;;;21.34;49.08;100134.03;7309810;19;128978;-40
2022/04/30 01:04:35;;;;;;;14.13;1.75;;;;;;;21.34;49.62;100119.16;7311393;19;128933;-39
2022/04/30 01:07:08;;;;;;;16.73;1.88;;;;;;;21.38;49.30;100125.81;7309533;19;157545;-37
2022/04/30 01:09:38;;;;;;;28.20;2.85;;;;;;;21.38;49.30;100120.59;7309974;19;130371;-40
2022/04/30 01:12:10;;;;;;;16.30;1.77;;;;;;;21.42;50.18;100121.97;7309088;19;130224;-39
2022/04/30 01:14:37;;;;;;;20.20;2.22;;;;;;;21.42;49.42;100115.94;7309728;19;128879;-41
2022/04/30 01:17:05;;;;;;;19.02;2.05;;;;;;;21.43;49.82;100107.97;7307570;19;129501;-37
2022/04/30 01:19:33;;;;;;;35.28;3.75;;;;;;;21.41;49.87;100107.25;7308809;19;129377;-37
2022/04/30 01:22:01;;;;;;;33.97;3.47;;;;;;;21.06;47.00;100114.53;7312012;19;128964;-38
2022/04/30 01:24:28;;;;;;;23.45;2.60;;;;;;;20.92;46.92;100120.00;7316958;19;129383;-37
2022/04/30 01:26:58;;;;;;;21.63;2.67;;;;;;;20.92;46.53;100117.41;7316439;19;129184;-42
2022/04/30 01:29:24;;;;;;;16.67;2.00;;;;;;;20.90;46.37;100119.28;7315109;19;129384;-36
2022/04/30 01:37:24;;;;;;;18.20;2.05;;;;;;;20.84;46.26;100095.44;7313942;19;129448;-40
2022/04/30 01:39:55;;;;;;;22.80;2.40;;;;;;;20.97;46.23;100103.94;7314909;19;130861;-37
2022/04/30 01:42:20;;;;;;;27.48;3.00;;;;;;;20.96;46.26;100102.31;7312459;19;129018;-41
2022/04/30 01:44:47;;;;;;;18.45;1.88;;;;;;;20.99;45.51;100095.03;7314283;19;154188;-42
2022/04/30 01:47:17;;;;;;;19.77;2.13;;;;;;;21.21;46.60;100100.22;7314035;19;129433;-39
2022/04/30 01:49:43;;;;;;;19.13;2.17;;;;;;;21.23;48.63;100093.06;7315467;19;129335;-38
2022/04/30 01:52:09;;;;;;;19.45;2.15;;;;;;;21.28;48.94;100098.75;7313877;19;148218;-37
2022/04/30 01:54:35;;;;;;;;;;;;;;;21.30;48.82;100075.09;7316920;19;129188;-38
2022/04/30 01:57:00;;;;;;;18.27;2.25;;;;;;;21.37;48.71;100100.59;7314197;19;129537;-37
2022/04/30 01:59:25;;;;;;;22.55;2.50;;;;;;;21.38;49.57;100091.81;7315844;19;131387;-38
2022/04/30 02:01:51;;;;;;;34.50;3.27;;;;;;;21.38;49.46;100096.22;7313845;19;154441;-41
2022/04/30 02:04:18;;;;;;;14.35;1.77;;;;;;;21.44;48.74;100101.78;7316293;19;129216;-38
2022/04/30 02:06:45;;;;;;;16.05;1.88;;;;;;;21.42;50.07;100100.25;7315837;19;129486;-41
2022/04/30 02:09:10;;;;;;;16.75;1.80;;;;;;;21.41;49.30;100099.41;7316045;19;129783;-38
2022/04/30 02:11:37;;;;;;;27.42;2.78;;;;;;;21.45;49.83;100095.56;7316196;19;130889;-38
2022/04/30 02:14:04;;;;;;;21.17;2.30;;;;;;;21.42;50.09;100090.59;7315575;19;129459;-38
2022/04/30 02:16:31;;;;;;;16.20;1.90;;;;;;;21.29;48.04;100078.66;7313821;19;129409;-39
2022/04/30 02:18:58;;;;;;;;;;;;;;;20.96;46.92;100076.97;7314599;19;129391;-39
2022/04/30 02:21:25;;;;;;;25.52;2.70;;;;;;;20.98;46.76;100080.31;7315997;19;129252;-38
2022/04/30 02:23:51;;;;;;;33.38;3.40;;;;;;;20.92;46.85;100078.19;7314728;19;128931;-42
2022/04/30 02:26:17;;;;;;;19.25;2.17;;;;;;;20.92;46.21;100080.81;7313824;19;140572;-37
2022/04/30 02:28:45;;;;;;;4.67;0.90;;;;;;;20.85;46.40;100066.56;7315574;19;130746;-38
2022/04/30 02:31:22;;;;;;;26.80;2.50;;;;;;;20.97;46.26;100077.81;7313099;19;153383;-38
2022/04/30 02:33:47;;;;;;;68.72;7.70;;;;;;;20.99;46.17;100076.75;7309550;19;129303;-37
2022/04/30 02:36:14;;;;;;;19.95;2.03;;;;;;;20.96;45.53;100071.75;7312217;19;130070;-37
2022/04/30 02:38:40;;;;;;;5.15;1.02;;;;;;;21.38;48.86;100072.69;7308660;19;130394;-38
2022/04/30 02:41:05;;;;;;;18.37;1.77;;;;;;;21.10;47.22;100050.59;7314476;19;129019;-39
2022/04/30 02:43:30;;;;;;;20.20;2.07;;;;;;;20.99;47.14;100055.84;7311100;19;153376;-39
2022/04/30 02:45:56;;;;;;;29.52;3.55;;;;;;;20.99;46.74;100061.06;7313283;19;130720;-38
2022/04/30 02:48:22;;;;;;;26.90;3.42;;;;;;;20.94;46.33;100068.41;7313453;19;129648;-37
2022/04/30 02:50:48;;;;;;;17.33;1.88;;;;;;;20.89;46.16;100044.44;7309858;19;128833;-37
2022/04/30 02:53:13;;;;;;;18.73;2.13;;;;;;;21.00;46.51;100060.13;7312078;19;129236;-40
2022/04/30 02:55:40;;;;;;;8.80;1.13;;;;;;;21.03;46.22;100056.41;7313266;19;129453;-40
2022/04/30 03:00:51;;;;;;;22.70;2.60;;;;;;;21.06;45.68;100051.78;7314530;19;128978;-40
2022/04/30 03:03:18;;;;;;;16.67;1.83;;;;;;;21.07;46.00;100056.06;7311617;19;129229;-40
2022/04/30 03:05:47;;;;;;;23.42;2.35;;;;;;;21.23;48.13;100059.09;7313799;19;129292;-41
2022/04/30 03:08:19;;;;;;;27.30;2.60;;;;;;;21.27;48.65;100055.25;7313615;19;129473;-41
2022/04/30 03:10:46;;;;;;;18.05;2.10;;;;;;;21.30;48.86;100049.78;7314518;19;129618;-37
2022/04/30 03:13:17;;;;;;;10.43;1.38;;;;;;;21.33;48.68;100046.91;7311058;19;129024;-42
2022/04/30 03:15:44;;;;;;;25.50;2.45;;;;;;;21.37;49.39;100050.91;7312559;19;131103;-39
2022/04/30 03:23:40;;;;;;;20.25;2.35;;;;;;;21.42;49.88;100046.13;7311985;19;129457;-37
2022/04/30 03:26:09;;;;;;;18.73;1.98;;;;;;;21.43;49.19;100052.19;7312763;19;129262;-40
2022/04/30 03:28:37;;;;;;;22.52;2.30;;;;;;;21.42;49.19;100038.28;7311517;19;129846;-37
2022/04/30 03:31:06;;;;;;;23.30;2.65;;;;;;;21.43;49.70;100037.34;7312902;19;128986;-39
2022/04/30 03:33:32;;;;;;;16.58;2.10;;;;;;;21.42;49.01;100040.91;7311055;19;128959;-38
2022/04/30 03:35:57;;;;;;;18.20;2.35;;;;;;;21.00;47.08;100041.84;7311460;19;129207;-36
2022/04/30 03:38:23;;;;;;;31.10;3.72;;;;;;;20.95;46.90;100040.50;7312081;19;129660;-38
2022/04/30 03:40:48;;;;;;;28.20;2.95;;;;;;;20.99;47.14;100040.16;7311166;19;154477;-40
2022/04/30 03:43:15;;;;;;;15.73;1.77;;;;;;;20.91;46.63;100042.53;7302685;19;154371;-41
2022/04/30 03:45:41;;;;;;;22.50;2.33;;;;;;;20.92;46.41;100041.59;7311417;19;128991;-39
2022/04/30 03:48:07;;;;;;;26.40;2.50;;;;;;;20.93;45.97;100040.63;7312727;19;131105;-41
2022/04/30 03:50:32;;;;;;;17.70;1.88;;;;;;;21.01;46.44;100035.63;7313024;19;129271;-41
2022/04/30 03:52:57;;;;;;;10.20;1.45;;;;;;;21.34;48.46;100027.63;7309186;19;150816;-37
2022/04/30 03:55:23;;;;;;;31.35;3.95;;;;;;;21.22;47.71;100020.00;7312383;19;129601;-39
2022/04/30 03:57:48;;;;;;;49.25;5.28;;;;;;;21.01;46.72;100021.72;7305775;19;129412;-37
2022/04/30 04:00:14;;;;;;;18.35;1.95;;;;;;;20.97;47.19;100030.75;7311517;19;129308;-39
2022/04/30 04:02:40;;;;;;;20.42;2.22;;;;;;;21.04;46.93;100027.53;7312022;19;128795;-40
2022/04/30 04:05:12;;;;;;;14.18;1.67;;;;;;;20.99;46.31;100027.09;7312825;19;130083;-37
2022/04/30 04:07:41;;;;;;;32.83;2.92;;;;;;;21.00;46.32;100023.53;7311917;19;129682;-37
2022/04/30 04:10:09;;;;;;;17.80;1.85;;;;;;;21.05;45.51;100031.00;7311157;19;128940;-40
2022/04/30 04:12:35;;;;;;;26.08;2.78;;;;;;;21.06;45.87;100036.09;7310336;19;129242;-37
2022/04/30 04:17:44;;;;;;;19.02;2.05;;;;;;;21.09;46.17;100032.41;7309502;19;128949;-39
2022/04/30 04:20:14;;;;;;;26.40;2.75;;;;;;;21.33;48.83;100028.59;7303758;19;155432;-38
2022/04/30 04:22:40;;;;;;;15.40;1.92;;;;;;;21.10;47.65;100034.91;7310852;19;129335;-37
2022/04/30 04:27:55;;;;;;;23.63;2.53;;;;;;;21.04;46.68;100035.38;7312224;19;129092;-38
2022/04/30 04:30:28;;;;;;;21.80;2.60;;;;;;;20.93;46.64;100024.94;7310561;19;129380;-38
2022/04/30 04:32:54;;;;;;;47.15;4.53;;;;;;;21.03;46.23;100038.13;7308505;19;128941;-42
2022/04/30 04:35:20;;;;;;;46.88;4.93;;;;;;;21.07;45.93;100024.69;7310767;19;129590;-39
2022/04/30 04:37:45;;;;;;;15.27;1.75;;;;;;;21.08;45.66;100036.81;7308422;19;129365;-42
2022/04/30 04:40:14;;;;;;;39.42;3.80;;;;;;;21.10;45.47;100047.97;7310201;19;129783;-39
2022/04/30 04:42:41;;;;;;;75.53;8.70;;;;;;;21.10;46.05;100050.59;7307133;19;129506;-40
2022/04/30 04:45:07;;;;;;;29.20;2.85;;;;;;;21.25;47.56;100051.94;7310943;19;131460;-42
2022/04/30 04:47:39;;;;;;;15.27;1.60;;;;;;;21.31;48.59;100056.66;7310286;19;129204;-36
2022/04/30 04:50:05;;;;;;;23.38;2.50;;;;;;;21.29;48.88;100037.63;7309539;19;129204;-41
2022/04/30 04:52:30;;;;;;;27.40;2.80;;;;;;;21.37;48.97;100052.72;7308646;19;128727;-41
2022/04/30 04:54:57;;;;;;;25.60;2.85;;;;;;;21.40;49.06;100055.88;7310553;19;129700;-39
2022/04/30 04:57:23;;;;;;;24.98;2.90;;;;;;;21.42;48.59;100053.97;7310937;19;129260;-38
2022/04/30 04:59:48;;;;;;;34.75;3.63;;;;;;;21.46;49.38;100058.00;7316287;19;128886;-41
2022/04/30 05:02:14;;;;;;;16.40;1.85;;;;;;;21.46;48.96;100060.63;7316346;19;128926;-39
2022/04/30 05:04:39;;;;;;;15.30;1.80;;;;;;;21.50;49.25;100055.97;7316092;19;158569;-39
2022/04/30 05:07:04;;;;;;;12.85;1.52;;;;;;;21.52;49.05;100054.88;7315546;19;154170;-37
2022/04/30 05:09:31;;;;;;;25.15;2.65;;;;;;;21.49;49.61;100049.91;7315979;19;154521;-37
2022/04/30 05:11:56;;;;;;;26.75;3.35;;;;;;;21.49;49.12;100054.28;7316152;19;128782;-38
2022/04/30 05:14:22;;;;;;;21.20;2.55;;;;;;;21.33;47.96;100048.69;7317250;19;129787;-37
2022/04/30 05:16:47;;;;;;;22.77;2.15;;;;;;;21.02;46.67;100041.69;7314387;19;159204;-40
2022/04/30 05:19:12;;;;;;;28.10;2.60;;;;;;;21.00;47.79;100041.84;7316495;19;129265;-37
2022/04/30 05:21:38;;;;;;;15.93;1.83;;;;;;;20.99;46.73;100040.16;7316518;19;154432;-38
2022/04/30 05:24:03;;;;;;;14.60;1.90;;;;;;;20.86;46.14;100021.16;7315855;19;158257;-42
2022/04/30 05:26:29;;;;;;;17.73;2.22;;;;;;;21.04;46.34;100035.38;7310342;19;129384;-38
2022/04/30 05:28:54;;;;;;;33.15;3.40;;;;;;;20.99;46.13;100034.94;7316559;19;129128;-38
2022/04/30 05:31:19;;;;;;;13.93;2.08;;;;;;;21.04;46.26;100038.00;7311106;19;139703;-39
2022/04/30 05:33:45;;;;;;;14.95;1.73;;;;;;;21.14;46.57;100045.94;7314522;19;130098;-37
2022/04/30 05:36:10;;;;;;;27.17;2.80;;;;;;;21.14;46.42;100044.13;7312935;19;160283;-38
2022/04/30 05:38:35;;;;;;;15.73;1.85;;;;;;;21.28;48.24;100038.63;7315368;19;129531;-40
2022/04/30 05:41:02;;;;;;;25.57;2.87;;;;;;;21.32;48.82;100036.56;7311986;19;153916;-39
2022/04/30 05:43:27;;;;;;;20.55;2.42;;;;;;;21.36;48.02;100033.56;7312834;19;129222;-38
2022/04/30 05:45:52;;;;;;;75.03;7.30;;;;;;;21.37;48.97;100040.44;7306344;19;159027;-38
2022/04/30 05:48:18;;;;;;;30.27;3.45;;;;;;;21.41;49.53;100034.03;7311857;19;154678;-39
2022/04/30 05:50:43;;;;;;;19.70;2.20;;;;;;;21.46;49.79;100047.53;7313349;19;129146;-41
2022/04/30 05:53:09;;;;;;;32.88;3.85;;;;;;;21.48;49.15;100050.88;7303295;19;158874;-38
2022/04/30 05:55:34;;;;;;;20.33;2.55;;;;;;;21.46;49.31;100047.53;7314787;19;129112;-40
2022/04/30 05:57:59;;;;;;;29.55;3.72;;;;;;;21.50;49.68;100061.19;7306460;19;136397;-37
2022/04/30 06:00:25;;;;;;;28.75;2.95;;;;;;;21.48;49.19;100057.88;7310824;19;132661;-38
2022/04/30 06:02:51;;;;;;;22.55;2.80;;;;;;;21.49;49.21;100059.53;7311136;19;158279;-38
2022/04/30 06:05:16;;;;;;;20.30;2.50;;;;;;;21.50;49.60;100066.44;7312692;19;130193;-38
2022/04/30 06:07:42;;;;;;;29.25;3.33;;;;;;;21.08;46.88;100059.50;7312735;19;129253;-38
2022/04/30 06:10:08;;;;;;;21.70;2.25;;;;;;;21.05;46.47;100060.59;7314567;19;129357;-37
2022/04/30 06:12:34;;;;;;;24.80;2.85;;;;;;;21.03;46.66;100051.19;7313268;19;130729;-38
2022/04/30 06:15:00;;;;;;;34.20;3.73;;;;;;;21.06;47.26;100059.63;7314100;19;129525;-38
2022/04/30 06:17:26;;;;;;;25.00;2.85;;;;;;;21.05;46.59;100052.75;7306294;19;129455;-37
2022/04/30 06:19:51;;;;;;;25.30;3.05;;;;;;;20.98;45.97;100048.13;7309395;19;128834;-38
2022/04/30 06:22:17;;;;;;;19.80;2.30;;;;;;;20.98;46.14;100037.66;7311415;19;159173;-37
2022/04/30 06:24:42;;;;;;;18.05;1.92;;;;;;;21.14;45.75;100056.41;7312839;19;152538;-38
2022/04/30 06:27:08;;;;;;;24.67;2.33;;;;;;;21.25;46.95;100043.25;7313872;19;129486;-39
2022/04/30 06:29:33;;;;;;;16.97;1.93;;;;;;;21.31;48.23;100048.81;7312139;19;131077;-39
2022/04/30 06:31:59;;;;;;;21.58;2.70;;;;;;;21.33;49.22;100053.91;7306944;19;129498;-37
2022/04/30 06:34:24;;;;;;;22.10;2.50;;;;;;;21.39;49.31;100054.22;7312902;19;138598;-37
2022/04/30 06:36:49;;;;;;;25.00;2.90;;;;;;;21.32;49.48;100037.38;7312639;19;153428;-37
2022/04/30 06:39:14;;;;;;;31.33;3.10;;;;;;;21.45;49.33;100048.47;7311218;19;153580;-43
2022/04/30 06:41:39;;;;;;;47.67;5.97;;;;;;;21.47;49.19;100056.22;7307050;19;158637;-42
2022/04/30 06:44:05;;;;;;;27.67;2.95;;;;;;;21.47;49.86;100056.22;7309004;19;158281;-38
2022/04/30 06:46:31;;;;;;;34.88;3.75;;;;;;;21.45;49.53;100053.72;7309050;19;154471;-39
2022/04/30 06:48:57;;;;;;;19.05;2.50;;;;;;;21.47;49.40;100054.44;7313548;19;129597;-38
2022/04/30 06:51:22;;;;;;;24.80;2.80;;;;;;;21.38;49.88;100041.28;7311657;19;129413;-39
2022/04/30 06:59:15;;;;;;;41.25;4.18;;;;;;;20.99;46.92;100066.28;7313198;19;128836;-38
2022/04/30 07:01:48;;;;;;;31.55;3.05;;;;;;;21.00;46.30;100057.50;7311867;19;130681;-40
2022/04/30 07:04:16;;;;;;;30.00;3.08;;;;;;;21.05;45.86;100057.97;7312387;19;129527;-40
2022/04/30 07:06:41;;;;;;;12.52;1.65;;;;;;;21.08;45.84;100065.56;7309048;19;130961;-38
2022/04/30 07:09:07;;;;;;;19.27;1.88;;;;;;;20.96;45.82;100045.59;7312167;19;129684;-42
2022/04/30 07:11:33;;;;;;;12.47;1.83;;;;;;;21.07;45.54;100058.69;7311740;19;129595;-41
2022/04/30 07:13:58;;;;;;;44.05;4.70;;;;;;;21.08;45.92;100068.16;7310555;19;129802;-37
2022/04/30 07:16:24;;;;;;;46.28;4.05;;;;;;;21.19;47.55;100062.09;7309776;19;129224;-37
2022/04/30 07:18:50;;;;;;;22.75;2.58;;;;;;;21.39;48.55;100069.09;7309264;19;129860;-39
2022/04/30 07:21:16;;;;;;;18.17;2.03;;;;;;;21.10;47.12;100063.66;7310206;19;129267;-43
2022/04/30 07:23:41;;;;;;;18.27;2.00;;;;;;;21.07;46.70;100063.91;7308185;19;129639;-43
2022/04/30 07:26:06;;;;;;;18.67;1.80;;;;;;;21.02;46.61;100063.47;7310001;19;147178;-37
2022/04/30 07:28:35;;;;;;;31.30;3.13;;;;;;;20.99;46.07;100042.75;7311006;19;129616;-37
2022/04/30 07:31:02;;;;;;;29.10;3.22;;;;;;;21.06;46.05;100061.41;7311676;19;130508;-38
2022/04/30 07:33:27;;;;;;;;;;;;;;;20.90;46.41;100046.13;7309499;19;129287;-42
2022/04/30 07:35:53;;;;;;;28.93;3.43;;;;;;;21.13;46.22;100068.63;7309943;19;128871;-39
2022/04/30 07:38:18;;;;;;;29.33;2.97;;;;;;;21.08;46.06;100070.78;7310690;19;128864;-39
2022/04/30 07:40:44;;;;;;;20.13;2.03;;;;;;;21.07;46.02;100074.38;7311649;19;158574;-39
2022/04/30 07:43:09;;;;;;;17.58;1.80;;;;;;;21.22;47.26;100070.47;7309398;19;159214;-39
2022/04/30 07:45:36;;;;;;;43.30;3.97;;;;;;;21.27;48.50;100070.94;7309564;19;155136;-39
2022/04/30 07:48:02;;;;;;;31.60;3.80;;;;;;;21.33;48.50;100073.06;7312164;19;129067;-40
2022/04/30 07:50:31;;;;;;;18.33;2.58;;;;;;;21.38;48.88;100068.28;7310429;19;130360;-39
2022/04/30 07:52:56;;;;;;;23.05;2.60;;;;;;;21.42;49.07;100085.38;7309831;19;130832;-38
2022/04/30 07:55:22;;;;;;;38.10;4.53;;;;;;;21.42;48.64;100081.94;7311128;19;128830;-39
2022/04/30 07:57:47;;;;;;;52.92;5.57;;;;;;;21.34;49.71;100072.09;7309585;19;129010;-37
2022/04/30 08:00:13;;;;;;;28.27;2.83;;;;;;;21.50;49.47;100092.59;7309155;19;157872;-40
2022/04/30 08:02:38;;;;;;;16.45;1.95;;;;;;;21.48;49.15;100092.72;7310293;19;129767;-38
2022/04/30 08:05:04;;;;;;;22.38;2.67;;;;;;;21.49;50.05;100097.00;7309392;19;155396;-39
2022/04/30 08:07:29;;;;;;;32.90;3.33;;;;;;;21.49;49.69;100090.91;7311276;19;129416;-38
2022/04/30 08:09:54;;;;;;;13.70;2.33;;;;;;;21.49;49.47;100091.75;7310180;19;158878;-35
2022/04/30 08:12:20;;;;;;;22.10;2.92;;;;;;;21.48;50.00;100089.28;7307562;19;158680;-40
2022/04/30 08:14:47;;;;;;;34.15;3.47;;;;;;;21.11;46.40;100085.38;7311434;19;132453;-39
2022/04/30 08:17:13;;;;;;;28.20;2.53;;;;;;;21.01;47.00;100093.16;7309341;19;129871;-38
2022/04/30 08:19:39;;;;;;;26.05;3.03;;;;;;;21.04;46.54;100095.50;7310042;19;130662;-40
2022/04/30 08:22:04;;;;;;;23.00;2.40;;;;;;;20.99;46.50;100100.28;7309374;19;129172;-39
2022/04/30 08:24:29;;;;;;;21.95;2.50;;;;;;;21.07;46.46;100097.06;7308810;19;154747;-39
2022/04/30 08:26:56;;;;;;;23.98;2.88;;;;;;;21.03;45.86;100099.09;7310339;19;129392;-40
2022/04/30 08:29:22;;;;;;;19.23;2.42;;;;;;;21.10;45.83;100096.81;7310066;19;129151;-39
2022/04/30 08:31:47;;;;;;;27.35;2.92;;;;;;;21.13;46.04;100089.53;7315146;19;129482;-39
2022/04/30 08:34:12;;;;;;;9.17;1.43;;;;;;;21.10;46.12;100095.03;7313733;19;155295;-39
2022/04/30 08:36:37;;;;;;;21.17;2.27;;;;;;;21.27;47.77;100084.00;7312484;19;154073;-39
2022/04/30 08:39:03;;;;;;;18.23;1.93;;;;;;;21.32;48.56;100081.03;7314582;19;153097;-40
2022/04/30 08:41:28;;;;;;;34.83;3.53;;;;;;;21.38;48.56;100078.75;7314960;19;136309;-37
2022/04/30 08:43:53;;;;;;;23.35;2.78;;;;;;;21.41;49.01;100075.03;7314993;19;153366;-40
2022/04/30 08:46:20;;;;;;;24.08;2.65;;;;;;;21.42;49.52;100074.91;7315708;19;130226;-39
2022/04/30 08:48:46;;;;;;;28.20;3.20;;;;;;;21.45;49.61;100074.66;7315699;19;130432;-38
2022/04/30 08:51:14;;;;;;;15.93;2.03;;;;;;;21.47;49.11;100077.97;7316689;19;129222;-41
2022/04/30 08:53:40;;;;;;;25.95;2.72;;;;;;;21.46;49.53;100085.94;7315173;19;129173;-38
2022/04/30 08:56:07;;;;;;;31.80;3.40;;;;;;;21.46;49.61;100078.94;7316131;19;129101;-41
2022/04/30 08:58:33;;;;;;;14.68;1.83;;;;;;;21.51;49.92;100073.31;7313722;19;130581;-38
2022/04/30 09:01:01;;;;;;;21.98;2.58;;;;;;;21.50;49.95;100076.91;7316599;19;129397;-39
2022/04/30 09:03:26;;;;;;;26.67;3.10;;;;;;;21.37;47.98;100076.25;7314901;19;129724;-41
2022/04/30 09:05:51;;;;;;;49.78;7.05;;;;;;;21.04;47.44;100060.72;7308634;19;153912;-40
2022/04/30 09:08:17;;;;;;;23.00;3.50;;;;;;;21.06;45.32;100077.06;7316187;19;129156;-39
2022/04/30 09:10:42;;;;;;;20.52;3.53;;;;;;;21.12;45.21;100069.56;7315998;19;129298;-39
2022/04/30 09:13:10;;;;;;;19.05;4.95;;;;;;;21.10;44.43;100074.13;7313832;19;149427;-41
2022/04/30 09:15:37;;;;;;;26.38;5.35;;;;;;;21.32;47.54;100068.75;7317295;19;129562;-40
2022/04/30 09:18:04;;;;;;;29.00;5.35;;;;;;;21.48;47.70;100063.94;7313574;19;130903;-41
2022/04/30 09:20:30;;;;;;;;;;;;;;;21.63;48.15;100059.22;7311006;19;131515;-39
2022/04/30 09:22:56;;;;;;;23.27;4.88;;;;;;;21.52;47.88;100065.34;7309540;19;129397;-40
2022/04/30 09:25:22;;;;;;;38.20;6.77;;;;;;;21.56;47.81;100061.53;7316614;19;129310;-40
2022/04/30 09:27:52;;;;;;;26.23;5.32;;;;;;;21.51;48.46;100048.00;7313177;19;129096;-40
2022/04/30 09:30:30;;;;;;;33.13;5.80;;;;;;;21.60;48.36;100062.91;7316921;19;129467;-39
2022/04/30 09:33:01;;;;;;;;;;;;;;;21.70;47.68;100065.59;7311885;19;129396;-41
2022/04/30 09:38:10;;;;;;;21.05;4.53;;;;;;;21.62;48.34;100055.75;7314402;19;129897;-40
2022/04/30 09:40:36;;;;;;;26.45;4.97;;;;;;;21.62;48.34;100058.38;7315067;19;130264;-38
2022/04/30 09:43:01;;;;;;;37.92;5.90;;;;;;;21.62;48.37;100055.75;7308792;19;155591;-38
2022/04/30 09:45:32;;;;;;;41.90;7.15;;;;;;;21.56;48.39;100039.75;7316718;19;129683;-40
2022/04/30 09:53:56;;;;;;;24.63;4.75;;;;;;;21.65;48.13;100055.50;7316648;19;129174;-39
2022/04/30 09:56:33;;;;;;;21.77;4.72;;;;;;;21.59;48.14;100058.63;7311122;19;130351;-38
2022/04/30 09:59:01;;;;;;;30.20;5.47;;;;;;;21.54;47.83;100050.34;7309252;19;129401;-39
2022/04/30 10:01:29;;;;;;;30.85;5.53;;;;;;;21.54;48.33;100052.13;7314266;19;130070;-39
2022/04/30 10:03:56;;;;;;;22.67;5.45;;;;;;;21.51;47.50;100050.59;7314737;19;128675;-40
2022/04/30 10:06:21;;;;;;;20.38;4.78;;;;;;;21.51;46.70;100048.00;7316125;19;129630;-40
2022/04/30 10:08:47;;;;;;;52.20;8.30;;;;;;;21.52;47.85;100046.19;7314230;19;129219;-38
2022/04/30 10:11:52;;;;;;;27.93;5.07;;;;;;;21.60;48.32;100041.97;7315496;19;129292;-39
2022/04/30 10:14:43;;;;;;;24.52;5.10;;;;;;;21.45;48.15;100030.16;7314073;19;130134;-39
2022/04/30 10:17:18;;;;;;;20.52;4.70;;;;;;;21.51;47.56;100048.00;7313647;19;129147;-39
2022/04/30 10:19:56;;;;;;;35.17;5.75;;;;;;;21.54;48.30;100037.25;7315781;19;130209;-39
2022/04/30 10:22:22;;;;;;;27.15;4.85;;;;;;;21.55;48.16;100038.09;7313481;19;129414;-40
2022/04/30 10:24:49;;;;;;;25.65;4.43;;;;;;;21.54;48.60;100037.25;7314061;19;153274;-40
2022/04/30 10:27:16;;;;;;;39.58;5.28;;;;;;;21.50;47.60;100024.56;7312742;19;130259;-41
2022/04/30 10:29:56;;;;;;;26.00;4.55;;;;;;;21.40;48.36;100014.03;7315337;19;129266;-41
2022/04/30 10:32:35;;;;;;;23.20;3.97;;;;;;;21.34;48.45;100022.41;7315374;19;130567;-38
2022/04/30 10:35:03;;;;;;;26.30;5.10;;;;;;;21.30;47.85;100020.19;7312227;19;129869;-41
2022/04/30 10:37:34;;;;;;;33.67;6.05;;;;;;;21.32;49.59;100019.06;7313542;19;128974;-40
2022/04/30 10:40:08;;;;;;;24.50;4.20;;;;;;;21.31;49.44;100014.81;7312125;19;129564;-39
2022/04/30 10:42:45;;;;;;;17.98;3.72;;;;;;;21.33;49.39;100015.53;7314520;19;130353;-40
2022/04/30 10:45:16;;;;;;;38.85;5.82;;;;;;;21.30;49.42;100020.19;7312126;19;129236;-39
2022/04/30 10:47:55;;;;;;;22.85;4.10;;;;;;;21.29;50.11;100005.41;7314756;19;130108;-40
2022/04/30 10:50:21;;;;;;;19.08;4.05;;;;;;;21.37;48.15;100011.69;7315086;19;129134;-40
2022/04/30 10:52:51;;;;;;;33.47;5.10;;;;;;;21.37;49.64;100016.09;7312501;19;129167;-40
2022/04/30 10:55:19;;;;;;;22.60;3.92;;;;;;;21.39;48.00;100007.16;7314180;19;129220;-41
2022/04/30 10:57:45;;;;;;;13.73;2.97;;;;;;;21.44;49.16;100007.59;7315437;19;128824;-39
2022/04/30 11:00:12;;;;;;;18.23;3.80;;;;;;;21.43;49.06;100013.81;7314463;19;129661;-39
2022/04/30 11:02:37;;;;;;;31.17;4.38;;;;;;;21.45;48.83;100011.06;7314382;19;130482;-40
2022/04/30 11:05:03;;;;;;;29.83;4.70;;;;;;;21.46;48.80;100005.69;7315448;19;155219;-40
2022/04/30 11:07:30;;;;;;;18.60;3.63;;;;;;;21.46;49.32;100007.47;7315348;19;129036;-40
2022/04/30 11:09:56;;;;;;;9.45;2.75;;;;;;;21.48;48.61;100001.16;7315359;19;129041;-40
2022/04/30 11:12:30;;;;;;;15.50;3.40;;;;;;;21.49;49.93;99996.75;7313415;19;129308;-41
2022/04/30 11:14:56;;;;;;;20.73;3.90;;;;;;;21.43;49.18;99987.66;7314569;19;150427;-39
2022/04/30 11:17:22;;;;;;;16.63;3.40;;;;;;;21.51;49.51;99995.66;7311037;19;130151;-41
2022/04/30 11:19:47;;;;;;;23.30;3.17;;;;;;;21.55;49.00;99991.81;7315789;19;129226;-41
2022/04/30 11:22:13;;;;;;;18.77;3.50;;;;;;;21.58;49.07;99986.34;7313343;19;129137;-39
2022/04/30 11:24:41;;;;;;;42.95;5.60;;;;;;;21.51;49.84;99990.44;7315761;19;129930;-41
2022/04/30 11:27:08;;;;;;;20.55;3.80;;;;;;;21.52;49.43;99986.84;7314877;19;128919;-39
2022/04/30 11:29:37;;;;;;;;;;;;;;;21.62;49.82;99982.50;7316230;19;129836;-40
2022/04/30 11:32:06;;;;;;;26.80;4.32;;;;;;;21.56;49.98;99979.56;7313133;19;130101;-40
2022/04/30 11:34:32;;;;;;;14.55;2.78;;;;;;;21.52;50.19;99981.63;7316021;19;128907;-40
2022/04/30 11:37:00;;;;;;;17.35;3.15;;;;;;;21.50;49.44;99978.28;7312532;19;153905;-39
2022/04/30 11:39:27;;;;;;;24.17;3.97;;;;;;;21.48;50.46;99972.38;7314017;19;130469;-38
2022/04/30 11:41:54;;;;;;;33.90;4.70;;;;;;;21.46;49.52;99969.06;7311526;19;129775;-41
2022/04/30 11:44:21;;;;;;;15.27;2.88;;;;;;;21.46;49.95;99969.06;7314201;19;129041;-38